This is the latest recevied weather packets stored in our database for station/object XE1E-15. If no packets are shown the sender has not sent any weather packets the latest 10 day(s).
| Time | Temp. | Humidity | Pressure | Rain* | Wind** | Luminosity | Snow |
|---|---|---|---|---|---|---|---|
| 1777788710 | 25.56° C | 51% | 1024.6 hPa | - | - | - | - |
| 1777787750 | 25.56° C | 51% | 1024.5 hPa | - | - | - | - |
| 1777786790 | 25° C | 52% | 1024.7 hPa | - | - | - | - |
| 1777785829 | 25.56° C | 51% | 1024.5 hPa | - | - | - | - |
| 1777784869 | 25° C | 51% | 1024.6 hPa | - | - | - | - |
| 1777783909 | 24.44° C | 53% | 1024.5 hPa | - | - | - | - |
| 1777782949 | 24.44° C | 53% | 1024.3 hPa | - | - | - | - |
| 1777781989 | 24.44° C | 53% | 1024.4 hPa | - | - | - | - |
| 1777781029 | 25° C | 51% | 1024.3 hPa | - | - | - | - |
| 1777780069 | 25° C | 53% | 1024.3 hPa | - | - | - | - |
| 1777779109 | 24.44° C | 55% | 1024.1 hPa | - | - | - | - |
| 1777778148 | 25° C | 51% | 1023.7 hPa | - | - | - | - |
| 1777777188 | 25.56° C | 51% | 1023.2 hPa | - | - | - | - |
| 1777776228 | 23.33° C | 58% | 1023 hPa | - | - | - | - |
| 1777775268 | 25.56° C | 48% | 1022.8 hPa | - | - | - | - |
| 1777774308 | 26.11° C | 47% | 1022.4 hPa | - | - | - | - |
| 1777773348 | 27.22° C | 43% | 1022.1 hPa | - | - | - | - |
| 1777767109 | 30° C | 32% | 1019.7 hPa | - | - | - | - |
| 1777766149 | 29.44° C | 32% | 1019.7 hPa | - | - | - | - |
| 1777761348 | 30° C | 28% | 1019.7 hPa | - | - | - | - |
| 1777759428 | 31.11° C | 27% | 1019.7 hPa | - | - | - | - |
| 1777757508 | 31.67° C | 26% | 1019.7 hPa | - | - | - | - |
| 1777756548 | 32.22° C | 25% | 1020 hPa | - | - | - | - |
| 1777753667 | 32.22° C | 25% | 1020.5 hPa | - | - | - | - |
| 1777752707 | 32.22° C | 24% | 1020.7 hPa | - | - | - | - |
* Rain since midnight (hover to see other rain measurements)
** Current wind speed in m/s (hover to see current wind gust speed)